createdAt,value
2022-11-15T00:01:22.096Z,93.28
2022-11-15T00:03:52.702Z,93.87
2022-11-15T00:06:19.669Z,94.59
2022-11-15T00:08:46.647Z,93.50
2022-11-15T00:11:16.113Z,92.95
2022-11-15T00:13:43.201Z,92.98
2022-11-15T00:16:11.509Z,91.81
2022-11-15T00:18:46.355Z,91.32
2022-11-15T00:21:19.355Z,91.36
2022-11-15T00:23:48.746Z,90.72
2022-11-15T00:26:16.421Z,90.55
2022-11-15T00:28:43.682Z,90.05
2022-11-15T00:31:14.668Z,92.64
2022-11-15T00:33:45.177Z,91.85
2022-11-15T00:36:12.854Z,91.03
2022-11-15T00:38:45.937Z,90.46
2022-11-15T00:41:15.055Z,89.56
2022-11-15T00:43:44.516Z,89.83
2022-11-15T00:46:11.820Z,89.86
2022-11-15T00:48:38.902Z,90.07
2022-11-15T00:51:06.118Z,90.56
2022-11-15T00:53:33.341Z,89.57
2022-11-15T00:56:00.465Z,89.12
2022-11-15T00:58:27.488Z,88.07
2022-11-15T01:00:54.539Z,88.29
2022-11-15T01:03:23.940Z,88.23
2022-11-15T01:06:00.348Z,88.82
2022-11-15T01:08:27.248Z,89.91
2022-11-15T01:10:56.188Z,91.88
2022-11-15T01:13:23.045Z,90.76
2022-11-15T01:15:49.975Z,90.24
2022-11-15T01:18:19.320Z,89.66
2022-11-15T01:20:46.163Z,89.94
2022-11-15T01:23:16.012Z,90.61
2022-11-15T01:25:42.891Z,90.25
2022-11-15T01:28:09.738Z,89.18
2022-11-15T01:30:41.676Z,89.59
2022-11-15T01:33:08.549Z,89.73
2022-11-15T01:35:40.806Z,90.95
2022-11-15T01:38:08.379Z,91.94
2022-11-15T01:40:35.388Z,92.15
2022-11-15T01:43:42.662Z,92.34
2022-11-15T01:46:36.823Z,92.36
2022-11-15T01:49:13.151Z,91.14
2022-11-15T01:51:40.747Z,91.97
2022-11-15T01:54:12.794Z,91.74
2022-11-15T01:56:51.916Z,92.01
2022-11-15T01:59:19.948Z,92.99
2022-11-15T02:01:47.551Z,94.16
2022-11-15T02:04:29.248Z,93.08
2022-11-15T02:06:56.246Z,92.78
2022-11-15T02:09:23.109Z,92.97
2022-11-15T02:11:56.185Z,91.69
2022-11-15T02:14:26.375Z,91.47
2022-11-15T02:17:21.176Z,91.74
2022-11-15T02:20:30.701Z,90.71
2022-11-15T02:23:06.620Z,91.90
2022-11-15T02:26:21.678Z,92.12
2022-11-15T02:29:11.524Z,92.00
2022-11-15T02:32:14.860Z,92.31
2022-11-15T02:34:49.728Z,91.14
2022-11-15T02:37:49.270Z,91.21
2022-11-15T02:40:53.518Z,91.85
2022-11-15T02:43:58.260Z,91.72
2022-11-15T02:47:07.825Z,91.73
2022-11-15T02:49:36.192Z,91.11
2022-11-15T02:52:03.533Z,92.51
2022-11-15T02:54:35.939Z,93.36
2022-11-15T02:57:08.317Z,92.24
2022-11-15T02:59:54.357Z,93.13
2022-11-15T03:02:48.832Z,92.29
2022-11-15T03:05:33.603Z,94.80
2022-11-15T03:08:24.649Z,94.63
2022-11-15T03:11:09.667Z,93.25
2022-11-15T03:14:00.488Z,93.50
2022-11-15T03:16:38.870Z,93.19
2022-11-15T03:19:08.212Z,92.00
2022-11-15T03:21:36.862Z,92.60
2022-11-15T03:24:07.989Z,90.87
2022-11-15T03:26:38.006Z,90.37
2022-11-15T03:29:31.742Z,89.65
2022-11-15T03:32:07.762Z,90.35
2022-11-15T03:34:48.789Z,89.72
2022-11-15T03:37:17.698Z,89.04
2022-11-15T03:39:47.566Z,89.19
2022-11-15T03:42:33.762Z,89.00
2022-11-15T03:45:19.898Z,89.37
2022-11-15T03:48:20.235Z,88.59
2022-11-15T03:50:50.555Z,88.69
2022-11-15T03:53:20.892Z,88.97
2022-11-15T03:55:49.840Z,89.05
2022-11-15T03:58:16.711Z,89.41
2022-11-15T04:00:43.721Z,88.44
2022-11-15T04:03:12.839Z,88.39
2022-11-15T04:05:41.935Z,88.55
2022-11-15T04:08:08.852Z,88.44
2022-11-15T04:10:37.923Z,88.04
2022-11-15T04:13:04.853Z,87.89
2022-11-15T04:15:37.276Z,87.48
2022-11-15T04:18:04.155Z,86.96
2022-11-15T04:20:51.873Z,85.96
2022-11-15T04:23:42.784Z,85.28
2022-11-15T04:26:13.126Z,92.98
2022-11-15T04:29:01.147Z,92.40
2022-11-15T04:31:31.160Z,90.83
2022-11-15T04:33:58.247Z,88.28
2022-11-15T04:36:43.890Z,87.27
2022-11-15T04:39:13.236Z,88.83
2022-11-15T04:41:40.066Z,88.40
2022-11-15T04:44:10.529Z,87.01
2022-11-15T04:46:39.434Z,86.25
2022-11-15T04:49:06.283Z,88.48
2022-11-15T04:51:35.658Z,88.58
2022-11-15T04:54:02.591Z,89.00
2022-11-15T04:56:32.400Z,88.41
2022-11-15T04:59:01.431Z,89.74
2022-11-15T05:01:28.468Z,88.08
2022-11-15T05:04:14.060Z,88.01
2022-11-15T05:06:43.491Z,88.76
2022-11-15T05:09:10.642Z,88.46
2022-11-15T05:11:39.781Z,88.16
2022-11-15T05:14:06.730Z,87.82
2022-11-15T05:16:35.727Z,88.88
2022-11-15T05:19:06.432Z,87.25
2022-11-15T05:21:34.262Z,87.13
2022-11-15T05:24:04.142Z,88.14
2022-11-15T05:26:33.737Z,88.83
2022-11-15T05:29:00.994Z,88.17
2022-11-15T05:31:28.762Z,87.60
2022-11-15T05:33:59.544Z,87.71
2022-11-15T05:36:43.393Z,87.34
2022-11-15T05:39:10.665Z,87.31
2022-11-15T05:42:16.427Z,88.31
2022-11-15T05:44:49.331Z,88.34
2022-11-15T05:47:27.091Z,86.94
2022-11-15T05:49:57.942Z,88.77
2022-11-15T05:52:30.994Z,89.97
2022-11-15T05:55:01.373Z,90.19
2022-11-15T05:57:28.219Z,89.50
2022-11-15T05:59:58.307Z,89.79
2022-11-15T06:02:25.215Z,89.32
2022-11-15T06:04:54.544Z,87.77
2022-11-15T06:07:21.430Z,86.52
2022-11-15T06:09:48.338Z,85.80
2022-11-15T06:12:18.166Z,86.44
2022-11-15T06:14:45.040Z,86.62
2022-11-15T06:17:14.086Z,87.67
2022-11-15T06:19:40.929Z,87.51
2022-11-15T06:22:07.777Z,87.00
2022-11-15T06:24:36.741Z,87.32
2022-11-15T06:27:10.644Z,87.43
2022-11-15T06:29:37.522Z,88.23
2022-11-15T06:32:07.598Z,88.27
2022-11-15T06:34:37.121Z,88.62
2022-11-15T06:37:09.536Z,88.41
2022-11-15T06:39:38.643Z,88.46
2022-11-15T06:42:07.790Z,87.78
2022-11-15T06:44:34.753Z,88.90
2022-11-15T06:47:01.666Z,89.34
2022-11-15T06:49:33.026Z,89.08
2022-11-15T06:52:02.006Z,88.02
2022-11-15T06:54:28.859Z,87.62
2022-11-15T06:56:58.719Z,88.17
2022-11-15T06:59:25.591Z,88.60
2022-11-15T07:01:55.473Z,89.24
2022-11-15T07:04:25.301Z,89.01
2022-11-15T07:06:54.437Z,87.95
2022-11-15T07:09:21.406Z,87.72
2022-11-15T07:11:50.769Z,87.91
2022-11-15T07:14:17.653Z,87.00
2022-11-15T07:16:44.481Z,86.62
2022-11-15T07:19:11.377Z,85.79
2022-11-15T07:21:40.447Z,85.22
2022-11-15T07:24:07.667Z,83.70
2022-11-15T07:26:34.511Z,82.23
2022-11-15T07:29:01.797Z,79.99
2022-11-15T07:31:28.711Z,78.95
2022-11-15T07:33:58.586Z,76.69
2022-11-15T07:36:27.533Z,73.32
2022-11-15T07:38:54.385Z,70.85
2022-11-15T07:41:23.754Z,71.21
2022-11-15T07:43:55.350Z,66.65
2022-11-15T07:46:22.281Z,64.86
2022-11-15T07:48:49.133Z,63.88
2022-11-15T07:51:23.751Z,62.97
2022-11-15T07:53:55.134Z,65.08
2022-11-15T07:56:22.063Z,65.67
2022-11-15T07:58:48.908Z,63.37
2022-11-15T08:01:15.919Z,62.01
2022-11-15T08:03:45.412Z,60.24
2022-11-15T08:06:12.281Z,58.79
2022-11-15T08:08:39.164Z,55.96
2022-11-15T08:11:06.146Z,55.41
2022-11-15T08:13:37.594Z,57.76
2022-11-15T08:16:07.291Z,58.50
2022-11-15T08:18:34.199Z,57.94
2022-11-15T08:21:02.085Z,55.73
2022-11-15T08:23:29.177Z,53.29
2022-11-15T08:26:08.048Z,53.92
2022-11-15T08:28:37.936Z,50.49
2022-11-15T08:31:05.414Z,49.63
2022-11-15T08:33:34.164Z,51.59
2022-11-15T08:36:01.949Z,53.74
2022-11-15T08:38:34.139Z,53.65
2022-11-15T08:41:06.970Z,52.83
2022-11-15T08:43:34.890Z,55.03
2022-11-15T08:46:02.045Z,54.82
2022-11-15T08:48:29.088Z,57.63
2022-11-15T08:50:57.619Z,57.44
2022-11-15T08:53:26.965Z,56.43
2022-11-15T08:55:53.908Z,56.36
2022-11-15T08:58:20.779Z,56.06
2022-11-15T09:00:50.167Z,57.26
2022-11-15T09:03:17.017Z,58.90
2022-11-15T09:05:49.458Z,59.09
2022-11-15T09:08:46.201Z,62.75
2022-11-15T09:11:09.026Z,67.02
2022-11-15T09:13:40.614Z,68.10
2022-11-15T09:16:07.731Z,68.23
2022-11-15T09:18:35.937Z,68.43
2022-11-15T09:21:03.852Z,70.04
2022-11-15T09:23:31.052Z,69.64
2022-11-15T09:26:07.716Z,69.11
2022-11-15T09:28:37.803Z,68.75
2022-11-15T09:31:06.986Z,66.72
2022-11-15T09:33:34.143Z,66.11
2022-11-15T09:36:13.232Z,66.24
2022-11-15T09:38:42.562Z,64.79
2022-11-15T09:41:17.685Z,61.87
2022-11-15T09:44:25.526Z,58.04
2022-11-15T09:47:29.572Z,55.84
2022-11-15T09:50:00.740Z,58.51
2022-11-15T09:52:28.613Z,61.38
2022-11-15T09:54:56.266Z,62.85
2022-11-15T09:57:35.717Z,65.12
2022-11-15T10:00:45.836Z,65.08
2022-11-15T10:03:36.452Z,63.66
2022-11-15T10:06:06.199Z,64.44
2022-11-15T10:08:51.774Z,64.10
2022-11-15T10:11:37.314Z,65.18
2022-11-15T10:14:24.870Z,66.16
2022-11-15T10:17:13.272Z,66.79
2022-11-15T10:20:05.259Z,67.25
2022-11-15T10:22:48.575Z,67.64
2022-11-15T10:25:20.227Z,66.59
2022-11-15T10:28:00.999Z,68.72
2022-11-15T10:30:39.900Z,69.04
2022-11-15T10:33:21.926Z,70.77
2022-11-15T10:35:51.789Z,70.57
2022-11-15T10:38:20.723Z,70.58
2022-11-15T10:40:50.587Z,69.76
2022-11-15T10:43:20.771Z,69.11
2022-11-15T10:45:53.727Z,68.24
2022-11-15T10:48:23.070Z,68.74
2022-11-15T10:50:52.354Z,67.69
2022-11-15T10:53:38.548Z,64.39
2022-11-15T10:56:09.960Z,56.57
2022-11-15T10:58:56.969Z,54.38
2022-11-15T11:01:27.264Z,55.78
2022-11-15T11:04:05.531Z,58.13
2022-11-15T11:07:09.738Z,61.02
2022-11-15T11:09:43.283Z,61.12
2022-11-15T11:12:28.792Z,62.81
2022-11-15T11:14:58.774Z,63.15
2022-11-15T11:18:11.768Z,64.64
2022-11-15T11:20:47.399Z,66.96
2022-11-15T11:23:48.212Z,67.39
2022-11-15T11:26:44.620Z,67.42
2022-11-15T11:29:46.141Z,68.41
2022-11-15T11:33:01.466Z,69.02
2022-11-15T11:35:55.628Z,67.89
2022-11-15T11:39:19.037Z,65.86
2022-11-15T11:42:17.206Z,64.15
2022-11-15T11:45:15.815Z,60.14
2022-11-15T11:47:53.031Z,57.75
2022-11-15T11:50:28.448Z,56.73
2022-11-15T11:53:06.044Z,55.95
2022-11-15T11:55:39.975Z,57.28
2022-11-15T11:58:40.574Z,56.84
2022-11-15T12:01:47.581Z,57.88
2022-11-15T12:04:40.006Z,57.70
2022-11-15T12:07:24.536Z,58.46
2022-11-15T12:10:10.385Z,60.97
2022-11-15T12:13:13.617Z,61.87
2022-11-15T12:16:06.079Z,59.59
2022-11-15T12:18:38.639Z,59.27
2022-11-15T12:21:17.656Z,58.04
2022-11-15T12:23:51.159Z,57.12
2022-11-15T12:26:28.225Z,60.04
2022-11-15T12:29:07.976Z,61.54
2022-11-15T12:34:25.871Z,61.47
2022-11-15T12:36:55.103Z,62.79
2022-11-15T12:40:03.680Z,64.48
2022-11-15T12:42:42.846Z,66.53
2022-11-15T12:45:29.473Z,66.88
2022-11-15T12:48:16.426Z,65.71
2022-11-15T12:50:55.279Z,65.58
2022-11-15T12:53:30.351Z,65.74
2022-11-15T12:56:13.976Z,66.30
2022-11-15T12:59:03.181Z,65.87
2022-11-15T13:01:33.283Z,65.16
2022-11-15T13:04:22.196Z,65.88
2022-11-15T13:07:08.651Z,65.13
2022-11-15T13:09:38.191Z,64.92
2022-11-15T13:12:26.834Z,64.22
2022-11-15T13:15:25.485Z,64.68
2022-11-15T13:17:54.869Z,64.35
2022-11-15T13:20:35.536Z,66.53
2022-11-15T13:23:11.435Z,66.37
2022-11-15T13:25:56.812Z,67.11
2022-11-15T13:28:52.791Z,68.20
2022-11-15T13:31:36.957Z,68.02
2022-11-15T13:34:51.061Z,68.95
2022-11-15T13:37:21.754Z,69.00
2022-11-15T13:39:50.277Z,69.92
2022-11-15T13:42:29.429Z,71.06
2022-11-15T13:45:02.901Z,71.19
2022-11-15T13:47:32.497Z,71.54
2022-11-15T13:50:03.376Z,72.10
2022-11-15T13:52:38.332Z,71.22
2022-11-15T13:55:16.900Z,72.05
2022-11-15T13:57:54.190Z,72.72
2022-11-15T14:00:39.695Z,72.78
2022-11-15T14:03:29.565Z,72.91
2022-11-15T14:06:18.460Z,73.38
2022-11-15T14:09:23.864Z,74.37
2022-11-15T14:11:53.904Z,74.12
2022-11-15T14:14:24.466Z,73.93
2022-11-15T14:16:58.536Z,71.67
2022-11-15T14:19:25.333Z,66.73
2022-11-15T14:22:26.330Z,63.51
2022-11-15T14:25:13.680Z,62.51
2022-11-15T14:27:47.180Z,65.16
2022-11-15T14:30:19.577Z,66.32
2022-11-15T14:32:53.227Z,67.27
2022-11-15T14:35:24.123Z,65.15
2022-11-15T14:37:51.709Z,63.87
2022-11-15T14:40:26.020Z,63.20
2022-11-15T14:42:55.684Z,63.24
2022-11-15T14:45:30.148Z,62.51
2022-11-15T14:47:57.417Z,62.99
2022-11-15T14:50:29.378Z,64.21
2022-11-15T14:52:56.578Z,65.14
2022-11-15T14:55:29.642Z,66.33
2022-11-15T14:57:57.032Z,67.27
2022-11-15T15:00:24.471Z,66.89
2022-11-15T15:02:55.360Z,67.84
2022-11-15T15:05:26.955Z,67.65
2022-11-15T15:07:56.565Z,68.99
2022-11-15T15:10:41.160Z,71.45
2022-11-15T15:13:23.777Z,72.09
2022-11-15T15:15:52.540Z,73.02
2022-11-15T15:18:21.216Z,73.39
2022-11-15T15:20:58.689Z,73.82
2022-11-15T15:23:30.227Z,73.99
2022-11-15T15:26:03.941Z,74.87
2022-11-15T15:28:36.678Z,76.65
2022-11-15T15:31:09.263Z,76.24
2022-11-15T15:33:42.912Z,76.76
2022-11-15T15:36:27.729Z,77.82
2022-11-15T15:39:10.027Z,78.13
2022-11-15T15:41:38.242Z,78.55
2022-11-15T15:44:05.902Z,77.88
2022-11-15T15:46:36.417Z,78.34
2022-11-15T15:49:07.083Z,78.93
2022-11-15T15:51:42.282Z,80.12
2022-11-15T15:54:09.943Z,80.20
2022-11-15T15:56:40.337Z,79.97
2022-11-15T15:59:19.713Z,80.08
2022-11-15T16:01:49.702Z,79.81
2022-11-15T16:04:19.762Z,79.53
2022-11-15T16:06:53.975Z,79.54
2022-11-15T16:09:43.493Z,78.54
2022-11-15T16:12:13.071Z,79.16
2022-11-15T16:14:40.155Z,79.65
2022-11-15T16:17:07.309Z,79.22
2022-11-15T16:19:36.469Z,78.62
2022-11-15T16:22:03.537Z,78.64
2022-11-15T16:24:32.900Z,78.04
2022-11-15T16:26:59.898Z,78.87
2022-11-15T16:29:31.812Z,79.53
2022-11-15T16:31:58.728Z,79.84
2022-11-15T16:34:30.019Z,81.18
2022-11-15T16:37:00.634Z,83.16
2022-11-15T16:39:30.681Z,85.66
2022-11-15T16:41:58.924Z,85.73
2022-11-15T16:44:31.500Z,87.05
2022-11-15T16:46:58.409Z,86.23
2022-11-15T16:49:27.746Z,86.07
2022-11-15T16:52:01.771Z,86.11
2022-11-15T16:54:33.213Z,86.72
2022-11-15T16:57:02.152Z,86.88
2022-11-15T16:59:31.358Z,85.76
2022-11-15T17:02:03.488Z,84.41
2022-11-15T17:04:33.703Z,85.48
2022-11-15T17:07:00.920Z,85.91
2022-11-15T17:09:27.820Z,85.61
2022-11-15T17:11:59.250Z,85.64
2022-11-15T17:14:26.065Z,84.24
2022-11-15T17:16:55.966Z,83.58
2022-11-15T17:19:25.255Z,83.75
2022-11-15T17:21:52.155Z,83.37
2022-11-15T17:24:20.865Z,83.45
2022-11-15T17:26:50.941Z,83.82
2022-11-15T17:29:18.535Z,85.01
2022-11-15T17:31:45.520Z,84.32
2022-11-15T17:34:12.435Z,84.07
2022-11-15T17:36:39.391Z,84.32
2022-11-15T17:39:06.420Z,83.71
2022-11-15T17:41:33.475Z,83.87
2022-11-15T17:44:05.149Z,82.11
2022-11-15T17:46:34.027Z,82.14
2022-11-15T17:49:03.548Z,83.24
2022-11-15T17:51:33.164Z,84.53
2022-11-15T17:54:00.105Z,83.96
2022-11-15T17:56:29.674Z,83.97
2022-11-15T17:58:59.667Z,82.78
2022-11-15T18:01:37.732Z,83.27
2022-11-15T18:04:08.415Z,82.74
2022-11-15T18:06:36.695Z,81.95
2022-11-15T18:09:08.149Z,83.02
2022-11-15T18:11:43.457Z,83.90
2022-11-15T18:14:15.748Z,82.11
2022-11-15T18:16:47.798Z,83.45
2022-11-15T18:19:15.176Z,83.73
2022-11-15T18:21:58.893Z,82.98
2022-11-15T18:24:38.345Z,82.82
2022-11-15T18:27:08.812Z,82.60
2022-11-15T18:29:37.757Z,82.09
2022-11-15T18:32:12.345Z,81.61
2022-11-15T18:34:41.898Z,84.15
2022-11-15T18:37:11.155Z,83.92
2022-11-15T18:39:42.718Z,83.70
2022-11-15T18:42:12.087Z,84.88
2022-11-15T18:44:39.011Z,84.89
2022-11-15T18:47:07.945Z,86.02
2022-11-15T18:49:34.941Z,85.91
2022-11-15T18:52:01.886Z,85.22
2022-11-15T18:54:31.926Z,84.01
2022-11-15T18:56:59.034Z,83.10
2022-11-15T18:59:27.635Z,83.17
2022-11-15T19:01:56.035Z,82.61
2022-11-15T19:04:25.265Z,83.70
2022-11-15T19:06:56.755Z,82.60
2022-11-15T19:09:27.276Z,83.18
2022-11-15T19:11:56.427Z,83.03
2022-11-15T19:14:25.260Z,82.92
2022-11-15T19:16:52.879Z,84.09
2022-11-15T19:19:29.633Z,83.55
2022-11-15T19:22:03.359Z,82.19
2022-11-15T19:24:32.899Z,81.41
2022-11-15T19:26:59.967Z,81.44
2022-11-15T19:29:26.869Z,82.21
2022-11-15T19:31:55.859Z,82.12
2022-11-15T19:34:26.401Z,81.09
2022-11-15T19:36:53.558Z,81.56
2022-11-15T19:39:20.405Z,81.73
2022-11-15T19:41:47.833Z,81.53
2022-11-15T19:44:18.816Z,81.43
2022-11-15T19:46:46.185Z,80.66
2022-11-15T19:49:13.218Z,80.66
2022-11-15T19:51:45.064Z,80.48
2022-11-15T19:54:11.995Z,80.87
2022-11-15T19:56:41.472Z,80.95
2022-11-15T19:59:11.499Z,80.01
2022-11-15T20:01:39.394Z,80.80
2022-11-15T20:04:10.512Z,80.60
2022-11-15T20:06:42.926Z,80.55
2022-11-15T20:09:15.702Z,80.81
2022-11-15T20:11:45.231Z,80.34
2022-11-15T20:14:14.762Z,81.63
2022-11-15T20:16:41.936Z,81.39
2022-11-15T20:19:12.535Z,81.66
2022-11-15T20:21:43.709Z,82.63
2022-11-15T20:24:10.864Z,82.17
2022-11-15T20:26:38.836Z,82.12
2022-11-15T20:29:11.567Z,81.00
2022-11-15T20:31:38.641Z,80.15
2022-11-15T20:34:05.727Z,80.51
2022-11-15T20:36:32.626Z,80.88
2022-11-15T20:39:02.609Z,80.81
2022-11-15T20:41:29.664Z,81.07
2022-11-15T20:43:56.602Z,81.50
2022-11-15T20:46:23.506Z,82.10
2022-11-15T20:48:50.425Z,82.86
2022-11-15T20:51:18.993Z,81.56
2022-11-15T20:53:47.431Z,80.81
2022-11-15T20:56:18.776Z,81.39
2022-11-15T20:58:50.448Z,82.19
2022-11-15T21:01:23.496Z,82.98
2022-11-15T21:03:57.233Z,83.76
2022-11-15T21:06:28.622Z,82.67
2022-11-15T21:09:16.398Z,83.04
2022-11-15T21:12:02.438Z,83.49
2022-11-15T21:14:30.061Z,82.78
2022-11-15T21:17:04.156Z,82.71
2022-11-15T21:19:35.518Z,83.57
2022-11-15T21:22:09.312Z,83.47
2022-11-15T21:24:39.771Z,83.13
2022-11-15T21:27:12.276Z,81.93
2022-11-15T21:29:39.608Z,82.25
2022-11-15T21:32:12.426Z,82.00
2022-11-15T21:34:39.278Z,81.80
2022-11-15T21:37:10.567Z,81.60
2022-11-15T21:39:38.398Z,81.04
2022-11-15T21:42:05.485Z,81.35
2022-11-15T21:44:35.409Z,82.55
2022-11-15T21:47:04.589Z,82.20
2022-11-15T21:49:31.481Z,80.86
2022-11-15T21:51:58.402Z,81.78
2022-11-15T21:54:25.330Z,82.31
2022-11-15T21:56:54.307Z,82.42
2022-11-15T21:59:21.218Z,81.57
2022-11-15T22:02:06.675Z,81.49
2022-11-15T22:04:35.909Z,82.05
2022-11-15T22:07:02.834Z,81.38
2022-11-15T22:09:29.709Z,81.60
2022-11-15T22:11:56.532Z,80.83
2022-11-15T22:14:23.416Z,81.30
2022-11-15T22:16:55.089Z,81.28
2022-11-15T22:19:24.179Z,82.68
2022-11-15T22:21:53.588Z,84.00
2022-11-15T22:24:23.314Z,83.75
2022-11-15T22:26:52.552Z,84.18
2022-11-15T22:29:19.436Z,83.25
2022-11-15T22:31:46.568Z,83.79
2022-11-15T22:34:13.482Z,84.38
2022-11-15T22:37:13.079Z,83.03
2022-11-15T22:39:34.646Z,83.86
2022-11-15T22:42:04.091Z,85.39
2022-11-15T22:44:30.980Z,85.27
2022-11-15T22:46:57.971Z,86.44
2022-11-15T22:49:26.987Z,87.13
2022-11-15T22:51:53.862Z,86.88
2022-11-15T22:54:23.747Z,87.51
2022-11-15T22:56:50.610Z,86.49
2022-11-15T22:59:17.532Z,85.45
2022-11-15T23:01:44.565Z,85.62
2022-11-15T23:04:11.461Z,87.27
2022-11-15T23:06:40.464Z,87.29
2022-11-15T23:09:12.446Z,87.49
2022-11-15T23:12:02.556Z,86.97
2022-11-15T23:14:29.458Z,87.95
2022-11-15T23:16:56.368Z,88.28
2022-11-15T23:19:25.598Z,88.97
2022-11-15T23:22:13.058Z,88.14
2022-11-15T23:24:39.940Z,86.79
2022-11-15T23:27:10.597Z,88.48
2022-11-15T23:29:58.388Z,87.30
2022-11-15T23:32:46.571Z,87.43
2022-11-15T23:35:16.523Z,87.78
2022-11-15T23:37:46.685Z,86.35
2022-11-15T23:40:17.348Z,85.81
2022-11-15T23:42:44.386Z,86.59
2022-11-15T23:45:11.959Z,86.19
2022-11-15T23:47:41.891Z,85.47
2022-11-15T23:50:11.626Z,85.12
2022-11-15T23:52:38.575Z,86.43
2022-11-15T23:55:06.253Z,87.14
2022-11-15T23:57:33.139Z,88.47
